Terminal Aerodrome Forecast
Issued by NWS

Home | Current Version | Previous Version | Graphics & Text | Print | Product List | Glossary On
Versions: 1 2 3 4 5 6 7 8 9 10 11 12 13 14 15
000
FTUS43 KGRB 050500
TAFAUW
TAF
KAUW 050520Z 0506/0606 VRB04KT P6SM BKN200
     FM050900 09005KT P6SM BKN200
     FM051500 11010KT P6SM BKN200
     FM052100 11009KT P6SM OVC150
     FM060300 11005KT P6SM BKN012 OVC150=

USA.gov is the U.S. government's official web portal to all federal, state and local government web resources and services.